Sand Lake, Minnesota
Current Conditions -  °F | °C
As of 12:13 AM on Sunday 23 Nov 2014 (Local Time) from KFOZ Reporting Station
Haze Haze  
Wind Chill: 26°   Ceiling: 500
Heat Index: 34°   Visibility: 4mi
Dew Point: 30°   Wind: 10mph
Humidity: 87%   Direction: 150°SSE
Pressure: 29.44"   Gusts: NA
Location:  47.5934°N, 93.8397°W
Report Text: KFOZ 230613Z AUTO 15009KT 4SM BR OVC005 01/M01 A2944 RMK AO2
Loading
Personal Weather Stations






























Interactive Weather Map New forecast layout! Learn more

10-Day Weather Forecast

Advertisements
Track Severe Weather on mobile